Weather at Fly Synthesis Airfield

Public forecast

Using degrees Celsius for public forecast. Weather courtesy of forecast.io.

Closest aviation weather report (METAR) to Fly Synthesis Airfield

Closest report is Udine-Rivolto Air Base, 7.7 nm (14.3 km) W.

2024/07/24 04:55 (retrieved 43 minutes ago)

LIPI 240455Z 34004KT CAVOK 21/18 Q1013 RMK SCT SCT180 VIS MIN 9999 WIND THR06 36005KT WIND THR24 01003KT BLU

Closest aviation forecast (TAF) to Fly Synthesis Airfield

Forecast is more than 6 hours old.

Closest forecast is Bolzano Airport, 84.5 nm (156.6 km) WNW.

2024/07/23 18:13 (retrieved 11 hours ago)

TAF LIPB 232105Z 2318/2418 CNL